EDXW

Westerland Sylt Airport

Westerland, Germany
TAF EDXW 261100Z 2612/2621 25015KT 9999 FEW008 TEMPO 2612/2621 25015G25KT
Issued Valid From Valid To
Apr-26 @ 11:00 UTC
(3 hours ago)
Apr-26 @ 12:00 UTC
(2 hours ago)
Apr-26 @ 21:00 UTC
(in 7 hours)
Apr-26 @ 12:00 to Apr-26 @ 21:00
TAF EDXW 261100Z 2612/2621 25015KT 9999 FEW008
Wind Visibility Clouds
250° at 15 knots 10,000+ meters
  • Few at 800' AGL
Temporary Apr-26 @ 12:00 to Apr-26 @ 21:00
TEMPO 2612/2621 25015G25KT
Wind
250° at 15 knots
 Gusting to 25 knots
TAF EDXW 261100Z 2612/2621 25015KT 9999 FEW008 TEMPO 2612/2621 25015G25KT
Issued Apr-26 @ 11:00 UTC
(3 hours ago)
Valid From Apr-26 @ 12:00 UTC
(2 hours ago)
Valid To Apr-26 @ 21:00 UTC
(in 7 hours)
Apr-26 @ 12:00 - Apr-26 @ 21:00
Wind Visibility
250° at 15 knots 10,000+ meters
Clouds
  • Few at 800' AGL
Temporary Apr-26 @ 12:00 - Apr-26 @ 21:00
Wind
250° at 15 knots
 Gusting to 25 knots